sensor_id;sensor_type;location;lat;lon;timestamp;pressure;altitude;pressure_sealevel;temperature;humidity
72423;BME280;71399;54.146;38.734;2024-02-15T00:01:11;100401.03;;;-9.56;100.00
72423;BME280;71399;54.146;38.734;2024-02-15T00:03:38;100396.78;;;-9.55;100.00
72423;BME280;71399;54.146;38.734;2024-02-15T00:06:04;100401.88;;;-9.55;100.00
72423;BME280;71399;54.146;38.734;2024-02-15T00:08:30;100395.03;;;-9.55;100.00
72423;BME280;71399;54.146;38.734;2024-02-15T00:10:56;100395.03;;;-9.55;100.00
72423;BME280;71399;54.146;38.734;2024-02-15T00:13:23;100397.72;;;-9.58;100.00
72423;BME280;71399;54.146;38.734;2024-02-15T00:15:49;100397.97;;;-9.62;100.00
72423;BME280;71399;54.146;38.734;2024-02-15T00:18:16;100388.81;;;-9.66;100.00
72423;BME280;71399;54.146;38.734;2024-02-15T00:20:42;100391.38;;;-9.66;100.00
72423;BME280;71399;54.146;38.734;2024-02-15T00:23:10;100393.94;;;-9.66;100.00
72423;BME280;71399;54.146;38.734;2024-02-15T00:25:37;100396.47;;;-9.66;100.00
72423;BME280;71399;54.146;38.734;2024-02-15T00:28:03;100389.13;;;-9.73;100.00
72423;BME280;71399;54.146;38.734;2024-02-15T00:30:30;100401.66;;;-9.68;100.00
72423;BME280;71399;54.146;38.734;2024-02-15T00:32:57;100401.56;;;-9.66;100.00
72423;BME280;71399;54.146;38.734;2024-02-15T00:35:23;100389.63;;;-9.66;100.00
72423;BME280;71399;54.146;38.734;2024-02-15T00:37:51;100398.22;;;-9.67;100.00
72423;BME280;71399;54.146;38.734;2024-02-15T00:40:17;100406.75;;;-9.68;100.00
72423;BME280;71399;54.146;38.734;2024-02-15T00:42:44;100406.91;;;-9.71;100.00
72423;BME280;71399;54.146;38.734;2024-02-15T00:45:10;100399.31;;;-9.73;100.00
72423;BME280;71399;54.146;38.734;2024-02-15T00:47:37;100406.91;;;-9.71;100.00
72423;BME280;71399;54.146;38.734;2024-02-15T00:50:08;100407.91;;;-9.74;100.00
72423;BME280;71399;54.146;38.734;2024-02-15T00:52:35;100406.31;;;-9.76;100.00
72423;BME280;71399;54.146;38.734;2024-02-15T00:55:02;100392.97;;;-9.81;100.00
72423;BME280;71399;54.146;38.734;2024-02-15T00:57:30;100396.25;;;-9.79;100.00
72423;BME280;71399;54.146;38.734;2024-02-15T00:59:56;100397.25;;;-9.82;100.00
72423;BME280;71399;54.146;38.734;2024-02-15T01:02:22;100397.31;;;-9.83;100.00
72423;BME280;71399;54.146;38.734;2024-02-15T01:04:51;100396.31;;;-9.81;100.00
72423;BME280;71399;54.146;38.734;2024-02-15T01:07:19;100391.22;;;-9.81;100.00
72423;BME280;71399;54.146;38.734;2024-02-15T01:09:45;100394.63;;;-9.80;100.00
72423;BME280;71399;54.146;38.734;2024-02-15T01:12:12;100388.38;;;-9.92;100.00
72423;BME280;71399;54.146;38.734;2024-02-15T01:14:38;100394.91;;;-9.87;100.00
72423;BME280;71399;54.146;38.734;2024-02-15T01:17:04;100390.63;;;-9.86;100.00
72423;BME280;71399;54.146;38.734;2024-02-15T01:19:30;100402.50;;;-9.85;100.00
72423;BME280;71399;54.146;38.734;2024-02-15T01:21:57;100400.84;;;-9.86;100.00
72423;BME280;71399;54.146;38.734;2024-02-15T01:24:25;100381.06;;;-9.98;100.00
72423;BME280;71399;54.146;38.734;2024-02-15T01:26:52;100397.75;;;-9.93;100.00
72423;BME280;71399;54.146;38.734;2024-02-15T01:29:19;100396.34;;;-9.98;100.00
72423;BME280;71399;54.146;38.734;2024-02-15T01:31:46;100404.00;;;-9.98;100.00
72423;BME280;71399;54.146;38.734;2024-02-15T01:34:12;100394.00;;;-10.03;100.00
72423;BME280;71399;54.146;38.734;2024-02-15T01:36:39;100403.25;;;-10.00;100.00
72423;BME280;71399;54.146;38.734;2024-02-15T01:39:05;100396.84;;;-10.09;100.00
72423;BME280;71399;54.146;38.734;2024-02-15T01:41:31;100408.56;;;-10.05;100.00
72423;BME280;71399;54.146;38.734;2024-02-15T01:43:58;100414.56;;;-10.06;100.00
72423;BME280;71399;54.146;38.734;2024-02-15T01:46:24;100423.13;;;-10.07;100.00
72423;BME280;71399;54.146;38.734;2024-02-15T01:48:51;100422.22;;;-10.06;100.00
72423;BME280;71399;54.146;38.734;2024-02-15T01:51:18;100427.38;;;-10.08;100.00
72423;BME280;71399;54.146;38.734;2024-02-15T01:53:44;100426.03;;;-10.15;100.00
72423;BME280;71399;54.146;38.734;2024-02-15T01:56:13;100424.63;;;-10.20;100.00
72423;BME280;71399;54.146;38.734;2024-02-15T01:58:40;100424.75;;;-10.23;100.00
72423;BME280;71399;54.146;38.734;2024-02-15T02:01:08;100435.63;;;-10.20;100.00
72423;BME280;71399;54.146;38.734;2024-02-15T02:03:35;100432.25;;;-10.20;100.00
72423;BME280;71399;54.146;38.734;2024-02-15T02:06:01;100437.38;;;-10.20;100.00
72423;BME280;71399;54.146;38.734;2024-02-15T02:08:29;100434.28;;;-10.27;100.00
72423;BME280;71399;54.146;38.734;2024-02-15T02:10:55;100446.41;;;-10.32;100.00
72423;BME280;71399;54.146;38.734;2024-02-15T02:13:23;100443.44;;;-10.40;100.00
72423;BME280;71399;54.146;38.734;2024-02-15T02:15:49;100434.53;;;-10.51;100.00
72423;BME280;71399;54.146;38.734;2024-02-15T02:18:16;100442.50;;;-10.39;100.00
72423;BME280;71399;54.146;38.734;2024-02-15T02:20:43;100435.06;;;-10.44;100.00
72423;BME280;71399;54.146;38.734;2024-02-15T02:23:16;100440.09;;;-10.43;100.00
72423;BME280;71399;54.146;38.734;2024-02-15T02:25:44;100439.28;;;-10.43;100.00
72423;BME280;71399;54.146;38.734;2024-02-15T02:28:12;100430.13;;;-10.47;100.00
72423;BME280;71399;54.146;38.734;2024-02-15T02:30:39;100437.56;;;-10.43;100.00
72423;BME280;71399;54.146;38.734;2024-02-15T02:33:14;100423.38;;;-10.48;100.00
72423;BME280;71399;54.146;38.734;2024-02-15T02:35:48;100431.03;;;-10.48;100.00
72423;BME280;71399;54.146;38.734;2024-02-15T02:38:15;100446.94;;;-10.43;100.00
72423;BME280;71399;54.146;38.734;2024-02-15T02:40:41;100437.63;;;-10.44;100.00
72423;BME280;71399;54.146;38.734;2024-02-15T02:43:07;100433.31;;;-10.42;100.00
72423;BME280;71399;54.146;38.734;2024-02-15T02:45:34;100447.69;;;-10.41;100.00
72423;BME280;71399;54.146;38.734;2024-02-15T02:48:00;100448.72;;;-10.45;100.00
72423;BME280;71399;54.146;38.734;2024-02-15T02:50:27;100454.56;;;-10.43;100.00
72423;BME280;71399;54.146;38.734;2024-02-15T02:52:53;100457.88;;;-10.41;100.00
72423;BME280;71399;54.146;38.734;2024-02-15T02:55:20;100452.03;;;-10.43;100.00
72423;BME280;71399;54.146;38.734;2024-02-15T02:57:47;100463.66;;;-10.37;100.00
72423;BME280;71399;54.146;38.734;2024-02-15T03:00:13;100461.94;;;-10.37;100.00
72423;BME280;71399;54.146;38.734;2024-02-15T03:02:43;100449.47;;;-10.43;100.00
72423;BME280;71399;54.146;38.734;2024-02-15T03:05:10;100459.25;;;-10.34;100.00
72423;BME280;71399;54.146;38.734;2024-02-15T03:07:41;100464.50;;;-10.37;100.00
72423;BME280;71399;54.146;38.734;2024-02-15T03:10:09;100456.38;;;-10.45;100.00
72423;BME280;71399;54.146;38.734;2024-02-15T03:12:37;100455.16;;;-10.55;100.00
72423;BME280;71399;54.146;38.734;2024-02-15T03:15:06;100455.84;;;-10.52;100.00
72423;BME280;71399;54.146;38.734;2024-02-15T03:17:40;100449.75;;;-10.49;100.00
72423;BME280;71399;54.146;38.734;2024-02-15T03:20:11;100435.72;;;-10.58;100.00
72423;BME280;71399;54.146;38.734;2024-02-15T03:22:56;100465.09;;;-10.51;100.00
72423;BME280;71399;54.146;38.734;2024-02-15T03:25:25;100468.63;;;-10.53;100.00
72423;BME280;71399;54.146;38.734;2024-02-15T03:27:52;100465.28;;;-10.54;100.00
72423;BME280;71399;54.146;38.734;2024-02-15T03:30:22;100459.31;;;-10.54;100.00
72423;BME280;71399;54.146;38.734;2024-02-15T03:32:53;100467.66;;;-10.51;100.00
72423;BME280;71399;54.146;38.734;2024-02-15T03:35:21;100469.53;;;-10.54;100.00
72423;BME280;71399;54.146;38.734;2024-02-15T03:37:50;100480.56;;;-10.54;100.00
72423;BME280;71399;54.146;38.734;2024-02-15T03:40:18;100471.13;;;-10.52;100.00
72423;BME280;71399;54.146;38.734;2024-02-15T03:42:45;100466.03;;;-10.52;100.00
72423;BME280;71399;54.146;38.734;2024-02-15T03:45:13;100476.97;;;-10.50;100.00
72423;BME280;71399;54.146;38.734;2024-02-15T03:47:40;100470.19;;;-10.51;100.00
72423;BME280;71399;54.146;38.734;2024-02-15T03:50:07;100471.31;;;-10.56;100.00
72423;BME280;71399;54.146;38.734;2024-02-15T03:52:37;100471.66;;;-10.64;100.00
72423;BME280;71399;54.146;38.734;2024-02-15T03:55:05;100454.44;;;-10.78;100.00
72423;BME280;71399;54.146;38.734;2024-02-15T03:57:39;100467.06;;;-10.75;100.00
72423;BME280;71399;54.146;38.734;2024-02-15T04:00:13;100470.09;;;-10.67;100.00
72423;BME280;71399;54.146;38.734;2024-02-15T04:02:40;100473.31;;;-10.63;100.00
72423;BME280;71399;54.146;38.734;2024-02-15T04:05:07;100470.69;;;-10.62;100.00
72423;BME280;71399;54.146;38.734;2024-02-15T04:07:36;100474.91;;;-10.60;100.00
72423;BME280;71399;54.146;38.734;2024-02-15T04:10:04;100455.56;;;-10.65;100.00
72423;BME280;71399;54.146;38.734;2024-02-15T04:12:33;100470.50;;;-10.57;100.00
72423;BME280;71399;54.146;38.734;2024-02-15T04:14:59;100463.06;;;-10.62;100.00
72423;BME280;71399;54.146;38.734;2024-02-15T04:17:46;100474.13;;;-10.63;100.00
72423;BME280;71399;54.146;38.734;2024-02-15T04:20:12;100467.28;;;-10.60;100.00
72423;BME280;71399;54.146;38.734;2024-02-15T04:22:41;100464.56;;;-10.57;100.00
72423;BME280;71399;54.146;38.734;2024-02-15T04:25:09;100465.47;;;-10.58;100.00
72423;BME280;71399;54.146;38.734;2024-02-15T04:27:36;100467.41;;;-10.64;100.00
72423;BME280;71399;54.146;38.734;2024-02-15T04:30:03;100469.94;;;-10.64;100.00
72423;BME280;71399;54.146;38.734;2024-02-15T04:32:30;100462.50;;;-10.68;100.00
72423;BME280;71399;54.146;38.734;2024-02-15T04:35:02;100480.28;;;-10.67;100.00
72423;BME280;71399;54.146;38.734;2024-02-15T04:37:30;100475.94;;;-10.65;100.00
72423;BME280;71399;54.146;38.734;2024-02-15T04:39:58;100474.97;;;-10.62;100.00
72423;BME280;71399;54.146;38.734;2024-02-15T04:42:32;100476.47;;;-10.58;100.00
72423;BME280;71399;54.146;38.734;2024-02-15T04:45:00;100475.53;;;-10.55;100.00
72423;BME280;71399;54.146;38.734;2024-02-15T04:47:29;100476.47;;;-10.58;100.00
72423;BME280;71399;54.146;38.734;2024-02-15T04:49:55;100484.63;;;-10.69;100.00
72423;BME280;71399;54.146;38.734;2024-02-15T04:52:22;100495.63;;;-10.68;100.00
72423;BME280;71399;54.146;38.734;2024-02-15T04:54:49;100484.38;;;-10.64;100.00
72423;BME280;71399;54.146;38.734;2024-02-15T04:57:15;100486.13;;;-10.65;100.00
72423;BME280;71399;54.146;38.734;2024-02-15T04:59:42;100478.47;;;-10.65;100.00
72423;BME280;71399;54.146;38.734;2024-02-15T05:02:13;100481.78;;;-10.63;100.00
72423;BME280;71399;54.146;38.734;2024-02-15T05:04:39;100474.06;;;-10.61;100.00
72423;BME280;71399;54.146;38.734;2024-02-15T05:07:10;100482.69;;;-10.64;100.00
72423;BME280;71399;54.146;38.734;2024-02-15T05:09:36;100481.94;;;-10.66;100.00
72423;BME280;71399;54.146;38.734;2024-02-15T05:12:03;100483.56;;;-10.65;100.00
72423;BME280;71399;54.146;38.734;2024-02-15T05:14:29;100480.34;;;-10.68;100.00
72423;BME280;71399;54.146;38.734;2024-02-15T05:16:56;100476.06;;;-10.68;100.00
72423;BME280;71399;54.146;38.734;2024-02-15T05:19:22;100480.28;;;-10.67;100.00
72423;BME280;71399;54.146;38.734;2024-02-15T05:21:49;100491.22;;;-10.65;100.00
72423;BME280;71399;54.146;38.734;2024-02-15T05:24:17;100486.88;;;-10.63;100.00
72423;BME280;71399;54.146;38.734;2024-02-15T05:26:45;100485.84;;;-10.58;100.00
72423;BME280;71399;54.146;38.734;2024-02-15T05:29:16;100482.75;;;-10.65;100.00
72423;BME280;71399;54.146;38.734;2024-02-15T05:31:42;100481.03;;;-10.65;100.00
72423;BME280;71399;54.146;38.734;2024-02-15T05:34:10;100477.88;;;-10.70;100.00
72423;BME280;71399;54.146;38.734;2024-02-15T05:36:40;100479.16;;;-10.61;100.00
72423;BME280;71399;54.146;38.734;2024-02-15T05:39:06;100481.66;;;-10.59;100.00
72423;BME280;71399;54.146;38.734;2024-02-15T05:41:33;100477.22;;;-10.56;100.00
72423;BME280;71399;54.146;38.734;2024-02-15T05:44:00;100478.84;;;-10.53;100.00
72423;BME280;71399;54.146;38.734;2024-02-15T05:46:27;100482.00;;;-10.48;100.00
72423;BME280;71399;54.146;38.734;2024-02-15T05:48:56;100488.59;;;-10.44;100.00
72423;BME280;71399;54.146;38.734;2024-02-15T05:51:22;100485.50;;;-10.51;100.00
72423;BME280;71399;54.146;38.734;2024-02-15T05:53:49;100493.06;;;-10.49;100.00
72423;BME280;71399;54.146;38.734;2024-02-15T05:56:15;100490.69;;;-10.52;100.00
72423;BME280;71399;54.146;38.734;2024-02-15T05:58:42;100507.34;;;-10.45;100.00
72423;BME280;71399;54.146;38.734;2024-02-15T06:01:08;100501.06;;;-10.38;100.00
72423;BME280;71399;54.146;38.734;2024-02-15T06:03:37;100498.38;;;-10.35;100.00
72423;BME280;71399;54.146;38.734;2024-02-15T06:06:05;100514.94;;;-10.26;100.00
72423;BME280;71399;54.146;38.734;2024-02-15T06:08:35;100505.13;;;-10.34;100.00
72423;BME280;71399;54.146;38.734;2024-02-15T06:11:02;100519.81;;;-10.21;100.00
72423;BME280;71399;54.146;38.734;2024-02-15T06:13:29;100507.81;;;-10.19;100.00
72423;BME280;71399;54.146;38.734;2024-02-15T06:15:57;100520.97;;;-10.10;100.00
72423;BME280;71399;54.146;38.734;2024-02-15T06:18:26;100503.94;;;-10.09;100.00
72423;BME280;71399;54.146;38.734;2024-02-15T06:20:59;100524.06;;;-10.03;100.00
72423;BME280;71399;54.146;38.734;2024-02-15T06:23:26;100533.22;;;-9.99;100.00
72423;BME280;71399;54.146;38.734;2024-02-15T06:25:55;100526.56;;;-10.01;100.00
72423;BME280;71399;54.146;38.734;2024-02-15T06:28:26;100536.63;;;-9.98;100.00
72423;BME280;71399;54.146;38.734;2024-02-15T06:31:11;100529.03;;;-10.00;100.00
72423;BME280;71399;54.146;38.734;2024-02-15T06:33:56;100537.09;;;-9.90;100.00
72423;BME280;71399;54.146;38.734;2024-02-15T06:36:53;100537.00;;;-9.89;100.00
72423;BME280;71399;54.146;38.734;2024-02-15T06:39:37;100549.69;;;-9.87;100.00
72423;BME280;71399;54.146;38.734;2024-02-15T06:42:04;100544.88;;;-9.93;100.00
72423;BME280;71399;54.146;38.734;2024-02-15T06:44:30;100565.69;;;-9.83;100.00
72423;BME280;71399;54.146;38.734;2024-02-15T06:46:56;100566.44;;;-9.81;100.00
72423;BME280;71399;54.146;38.734;2024-02-15T06:49:23;100566.28;;;-9.78;100.00
72423;BME280;71399;54.146;38.734;2024-02-15T06:51:52;100555.34;;;-9.80;100.00
72423;BME280;71399;54.146;38.734;2024-02-15T06:54:19;100561.59;;;-9.69;100.00
72423;BME280;71399;54.146;38.734;2024-02-15T06:56:45;100555.63;;;-9.69;100.00
72423;BME280;71399;54.146;38.734;2024-02-15T06:59:13;100567.44;;;-9.66;100.00
72423;BME280;71399;54.146;38.734;2024-02-15T07:01:44;100567.91;;;-9.58;100.00
72423;BME280;71399;54.146;38.734;2024-02-15T07:04:10;100570.97;;;-9.52;100.00
72423;BME280;71399;54.146;38.734;2024-02-15T07:06:37;100570.13;;;-9.52;100.00
72423;BME280;71399;54.146;38.734;2024-02-15T07:09:05;100571.50;;;-9.45;100.00
72423;BME280;71399;54.146;38.734;2024-02-15T07:11:33;100567.22;;;-9.44;100.00
72423;BME280;71399;54.146;38.734;2024-02-15T07:14:02;100574.28;;;-9.32;100.00
72423;BME280;71399;54.146;38.734;2024-02-15T07:16:33;100572.50;;;-9.30;100.00
72423;BME280;71399;54.146;38.734;2024-02-15T07:19:00;100586.53;;;-9.21;100.00
72423;BME280;71399;54.146;38.734;2024-02-15T07:21:26;100582.84;;;-9.16;100.00
72423;BME280;71399;54.146;38.734;2024-02-15T07:23:53;100593.06;;;-9.16;100.00
72423;BME280;71399;54.146;38.734;2024-02-15T07:26:25;100595.00;;;-9.21;100.00
72423;BME280;71399;54.146;38.734;2024-02-15T07:28:53;100592.78;;;-9.27;100.00
72423;BME280;71399;54.146;38.734;2024-02-15T07:31:22;100585.78;;;-9.23;100.00
72423;BME280;71399;54.146;38.734;2024-02-15T07:33:50;100588.72;;;-9.14;100.00
72423;BME280;71399;54.146;38.734;2024-02-15T07:36:20;100587.44;;;-9.05;100.00
72423;BME280;71399;54.146;38.734;2024-02-15T07:38:50;100594.34;;;-9.07;100.00
72423;BME280;71399;54.146;38.734;2024-02-15T07:41:18;100599.28;;;-9.04;100.00
72423;BME280;71399;54.146;38.734;2024-02-15T07:43:45;100596.81;;;-9.05;100.00
72423;BME280;71399;54.146;38.734;2024-02-15T07:46:13;100603.88;;;-9.10;100.00
72423;BME280;71399;54.146;38.734;2024-02-15T07:48:40;100583.75;;;-9.17;100.00
72423;BME280;71399;54.146;38.734;2024-02-15T07:51:15;100596.13;;;-9.09;100.00
72423;BME280;71399;54.146;38.734;2024-02-15T07:53:42;100593.06;;;-9.16;100.00
72423;BME280;71399;54.146;38.734;2024-02-15T07:56:12;100585.41;;;-9.33;100.00
72423;BME280;71399;54.146;38.734;2024-02-15T07:58:40;100571.19;;;-9.39;100.00
72423;BME280;71399;54.146;38.734;2024-02-15T08:01:07;100578.72;;;-9.36;100.00
72423;BME280;71399;54.146;38.734;2024-02-15T08:03:35;100588.31;;;-9.41;100.00
72423;BME280;71399;54.146;38.734;2024-02-15T08:06:02;100566.56;;;-9.48;100.00
72423;BME280;71399;54.146;38.734;2024-02-15T08:08:35;100581.72;;;-9.45;100.00
72423;BME280;71399;54.146;38.734;2024-02-15T08:11:02;100581.13;;;-9.50;100.00
72423;BME280;71399;54.146;38.734;2024-02-15T08:13:29;100561.13;;;-9.59;100.00
72423;BME280;71399;54.146;38.734;2024-02-15T08:15:56;100566.63;;;-9.50;100.00
72423;BME280;71399;54.146;38.734;2024-02-15T08:18:22;100575.69;;;-9.61;100.00
72423;BME280;71399;54.146;38.734;2024-02-15T08:20:48;100581.69;;;-9.62;100.00
72423;BME280;71399;54.146;38.734;2024-02-15T08:23:14;100587.72;;;-9.63;100.00
72423;BME280;71399;54.146;38.734;2024-02-15T08:25:40;100578.59;;;-9.69;100.00
72423;BME280;71399;54.146;38.734;2024-02-15T08:28:07;100581.28;;;-9.72;100.00
72423;BME280;71399;54.146;38.734;2024-02-15T08:30:33;100586.56;;;-9.75;100.00
72423;BME280;71399;54.146;38.734;2024-02-15T08:32:59;100596.16;;;-9.80;100.00
72423;BME280;71399;54.146;38.734;2024-02-15T08:35:25;100600.13;;;-9.75;100.00
72423;BME280;71399;54.146;38.734;2024-02-15T08:37:52;100594.22;;;-9.75;100.00
72423;BME280;71399;54.146;38.734;2024-02-15T08:40:19;100610.34;;;-9.75;100.00
72423;BME280;71399;54.146;38.734;2024-02-15T08:42:50;100600.81;;;-9.71;100.00
72423;BME280;71399;54.146;38.734;2024-02-15T08:45:17;100592.47;;;-9.75;100.00
72423;BME280;71399;54.146;38.734;2024-02-15T08:47:43;100584.28;;;-9.81;100.00
72423;BME280;71399;54.146;38.734;2024-02-15T08:50:11;100590.97;;;-9.79;100.00
72423;BME280;71399;54.146;38.734;2024-02-15T08:52:38;100587.25;;;-9.72;100.00
72423;BME280;71399;54.146;38.734;2024-02-15T08:55:07;100584.25;;;-9.62;100.00
72423;BME280;71399;54.146;38.734;2024-02-15T08:57:35;100577.56;;;-9.65;100.00
72423;BME280;71399;54.146;38.734;2024-02-15T09:00:03;100582.69;;;-9.65;100.00
72423;BME280;71399;54.146;38.734;2024-02-15T09:02:40;100564.81;;;-9.65;100.00
72423;BME280;71399;54.146;38.734;2024-02-15T09:05:06;100575.41;;;-9.55;100.00
72423;BME280;71399;54.146;38.734;2024-02-15T09:07:33;100585.38;;;-9.51;100.00
72423;BME280;71399;54.146;38.734;2024-02-15T09:09:59;100579.31;;;-9.48;100.00
72423;BME280;71399;54.146;38.734;2024-02-15T09:12:25;100587.03;;;-9.50;100.00
72423;BME280;71399;54.146;38.734;2024-02-15T09:14:51;100595.53;;;-9.49;100.00
72423;BME280;71399;54.146;38.734;2024-02-15T09:17:18;100593.94;;;-9.52;100.00
72423;BME280;71399;54.146;38.734;2024-02-15T09:19:47;100601.47;;;-9.48;100.00
72423;BME280;71399;54.146;38.734;2024-02-15T09:22:15;100594.69;;;-9.50;100.00
72423;BME280;71399;54.146;38.734;2024-02-15T09:24:41;100594.56;;;-9.46;100.00
72423;BME280;71399;54.146;38.734;2024-02-15T09:27:08;100574.81;;;-9.43;100.00
72423;BME280;71399;54.146;38.734;2024-02-15T09:29:38;100591.88;;;-9.43;100.00
72423;BME280;71399;54.146;38.734;2024-02-15T09:32:06;100590.28;;;-9.46;100.00
72423;BME280;71399;54.146;38.734;2024-02-15T09:34:33;100605.97;;;-9.36;100.00
72423;BME280;71399;54.146;38.734;2024-02-15T09:36:59;100598.78;;;-9.28;100.00
72423;BME280;71399;54.146;38.734;2024-02-15T09:39:25;100596.81;;;-9.23;100.00
72423;BME280;71399;54.146;38.734;2024-02-15T09:41:51;100594.34;;;-9.24;100.00
72423;BME280;71399;54.146;38.734;2024-02-15T09:44:25;100605.91;;;-9.17;100.00
72423;BME280;71399;54.146;38.734;2024-02-15T09:47:05;100603.34;;;-9.17;100.00
72423;BME280;71399;54.146;38.734;2024-02-15T09:49:39;100599.97;;;-9.18;100.00
72423;BME280;71399;54.146;38.734;2024-02-15T09:52:09;100599.31;;;-9.21;100.00
72423;BME280;71399;54.146;38.734;2024-02-15T09:54:42;100587.28;;;-9.19;100.00
72423;BME280;71399;54.146;38.734;2024-02-15T09:57:12;100588.53;;;-9.10;100.00
72423;BME280;71399;54.146;38.734;2024-02-15T09:59:38;100595.09;;;-9.05;100.00
72423;BME280;71399;54.146;38.734;2024-02-15T10:02:05;100582.34;;;-9.05;100.00
72423;BME280;71399;54.146;38.734;2024-02-15T10:04:41;100587.88;;;-8.97;100.00
72423;BME280;71399;54.146;38.734;2024-02-15T10:07:08;100584.41;;;-8.96;100.00
72423;BME280;71399;54.146;38.734;2024-02-15T10:09:34;100583.16;;;-8.87;100.00
72423;BME280;71399;54.146;38.734;2024-02-15T10:12:03;100590.88;;;-8.88;100.00
72423;BME280;71399;54.146;38.734;2024-02-15T10:14:32;100583.47;;;-8.77;100.00
72423;BME280;71399;54.146;38.734;2024-02-15T10:17:06;100592.25;;;-8.65;100.00
72423;BME280;71399;54.146;38.734;2024-02-15T10:19:39;100581.28;;;-8.67;100.00
72423;BME280;71399;54.146;38.734;2024-02-15T10:22:09;100584.28;;;-8.59;100.00
72423;BME280;71399;54.146;38.734;2024-02-15T10:24:36;100584.94;;;-8.55;100.00
72423;BME280;71399;54.146;38.734;2024-02-15T10:27:03;100575.31;;;-8.50;100.00
72423;BME280;71399;54.146;38.734;2024-02-15T10:29:33;100580.03;;;-8.43;100.00
72423;BME280;71399;54.146;38.734;2024-02-15T10:32:03;100577.28;;;-8.40;100.00
72423;BME280;71399;54.146;38.734;2024-02-15T10:34:34;100561.13;;;-8.40;100.00
72423;BME280;71399;54.146;38.734;2024-02-15T10:37:13;100576.97;;;-8.17;100.00
72423;BME280;71399;54.146;38.734;2024-02-15T10:39:39;100571.19;;;-8.21;100.00
72423;BME280;71399;54.146;38.734;2024-02-15T10:42:08;100585.72;;;-8.06;100.00
72423;BME280;71399;54.146;38.734;2024-02-15T10:44:38;100587.28;;;-8.03;100.00
72423;BME280;71399;54.146;38.734;2024-02-15T10:47:04;100582.16;;;-7.87;100.00
72423;BME280;71399;54.146;38.734;2024-02-15T10:49:34;100579.19;;;-7.79;100.00
72423;BME280;71399;54.146;38.734;2024-02-15T10:52:04;100586.63;;;-7.75;100.00
72423;BME280;71399;54.146;38.734;2024-02-15T10:54:52;100594.31;;;-7.75;100.00
72423;BME280;71399;54.146;38.734;2024-02-15T10:57:26;100594.63;;;-7.81;100.00
72423;BME280;71399;54.146;38.734;2024-02-15T10:59:56;100599.44;;;-7.75;100.00
72423;BME280;71399;54.146;38.734;2024-02-15T11:02:30;100599.59;;;-7.78;100.00
72423;BME280;71399;54.146;38.734;2024-02-15T11:05:02;100594.88;;;-7.86;100.00
72423;BME280;71399;54.146;38.734;2024-02-15T11:07:31;100589.44;;;-7.79;100.00
72423;BME280;71399;54.146;38.734;2024-02-15T11:09:58;100589.09;;;-7.73;100.00
72423;BME280;71399;54.146;38.734;2024-02-15T11:12:27;100595.78;;;-7.71;100.00
72423;BME280;71399;54.146;38.734;2024-02-15T11:14:54;100589.19;;;-7.75;100.00
72423;BME280;71399;54.146;38.734;2024-02-15T11:20:06;100593.53;;;-7.77;100.00
72423;BME280;71399;54.146;38.734;2024-02-15T11:22:37;100573.63;;;-7.72;100.00
72423;BME280;71399;54.146;38.734;2024-02-15T11:25:05;100587.25;;;-7.55;100.00
72423;BME280;71399;54.146;38.734;2024-02-15T11:27:37;100593.69;;;-7.48;100.00
72423;BME280;71399;54.146;38.734;2024-02-15T11:30:08;100594.16;;;-7.41;100.00
72423;BME280;71399;54.146;38.734;2024-02-15T11:32:50;100592.09;;;-7.35;100.00
72423;BME280;71399;54.146;38.734;2024-02-15T11:35:23;100588.09;;;-7.24;100.00
72423;BME280;71399;54.146;38.734;2024-02-15T11:43:10;100602.84;;;-7.44;100.00
72423;BME280;71399;54.146;38.734;2024-02-15T11:45:58;100590.72;;;-7.56;100.00
72423;BME280;71399;54.146;38.734;2024-02-15T11:48:26;100599.63;;;-7.64;100.00
72423;BME280;71399;54.146;38.734;2024-02-15T11:50:52;100604.84;;;-7.65;100.00
72423;BME280;71399;54.146;38.734;2024-02-15T11:53:18;100602.41;;;-7.67;100.00
72423;BME280;71399;54.146;38.734;2024-02-15T11:55:44;100600.00;;;-7.70;100.00
72423;BME280;71399;54.146;38.734;2024-02-15T11:58:12;100594.88;;;-7.70;100.00
72423;BME280;71399;54.146;38.734;2024-02-15T12:00:59;100603.28;;;-7.68;100.00
72423;BME280;71399;54.146;38.734;2024-02-15T12:03:44;100599.84;;;-7.67;100.00
72423;BME280;71399;54.146;38.734;2024-02-15T12:06:28;100603.84;;;-7.63;100.00
72423;BME280;71399;54.146;38.734;2024-02-15T12:09:17;100602.41;;;-7.67;100.00
72423;BME280;71399;54.146;38.734;2024-02-15T12:12:02;100601.91;;;-7.73;100.00
72423;BME280;71399;54.146;38.734;2024-02-15T12:14:46;100618.41;;;-7.63;100.00
72423;BME280;71399;54.146;38.734;2024-02-15T12:17:31;100597.28;;;-7.67;100.00
72423;BME280;71399;54.146;38.734;2024-02-15T12:20:15;100617.63;;;-7.65;100.00
72423;BME280;71399;54.146;38.734;2024-02-15T12:22:44;100598.56;;;-7.75;100.00
72423;BME280;71399;54.146;38.734;2024-02-15T12:25:15;100619.06;;;-7.75;100.00
72423;BME280;71399;54.146;38.734;2024-02-15T12:27:43;100615.91;;;-7.80;100.00
72423;BME280;71399;54.146;38.734;2024-02-15T12:30:14;100607.00;;;-7.89;100.00
72423;BME280;71399;54.146;38.734;2024-02-15T12:32:40;100624.84;;;-7.88;100.00
72423;BME280;71399;54.146;38.734;2024-02-15T12:35:11;100626.09;;;-7.95;100.00
72423;BME280;71399;54.146;38.734;2024-02-15T12:37:46;100609.16;;;-8.13;100.00
72423;BME280;71399;54.146;38.734;2024-02-15T12:40:19;100617.50;;;-8.10;100.00
72423;BME280;71399;54.146;38.734;2024-02-15T12:42:48;100623.50;;;-8.11;100.00